96245 UUMU-URRP
Flight info
| Callsign | 96245 |
|---|---|
| Flight time | 2h 27m |
| Altitude | FL310 |
| Route | K0700F310 UPLOP M56 ABAGI B105 NIMTA B105 WGD GAMTU G364 BADEB |
| Aircraft | IL76 |
Departure
| Time | 2026-04-29 17:27 |
|---|---|
| Airport | Chkalovskiy Air Base (UUMU) |
Arrival
| Time | 2026-04-29 19:54 |
|---|---|
| Airport | Platov International Airport (URRP) |
| Time | Latitude | Longitude | Altitude | Speed | Heading |
|---|---|---|---|---|---|
| 2026-04-29 17:06 | 55.88499 | 38.04027 | 503 ft | 0 kts | 134° |
| 2026-04-29 17:11 | 55.88499 | 38.04028 | 503 ft | 0 kts | 134° |
| 2026-04-29 17:13 | 55.88498 | 38.04028 | 503 ft | 0 kts | 134° |
| 2026-04-29 17:13 | 55.88498 | 38.04029 | 503 ft | 0 kts | 134° |
| 2026-04-29 17:14 | 55.88498 | 38.04030 | 503 ft | 0 kts | 134° |
| 2026-04-29 17:15 | 55.88497 | 38.04030 | 503 ft | 0 kts | 134° |
| 2026-04-29 17:15 | 55.88497 | 38.04031 | 503 ft | 0 kts | 134° |
| 2026-04-29 17:15 | 55.88497 | 38.04032 | 503 ft | 0 kts | 134° |
| 2026-04-29 17:16 | 55.88496 | 38.04032 | 503 ft | 0 kts | 134° |
| 2026-04-29 17:16 | 55.88495 | 38.04035 | 503 ft | 1 kts | 134° |
| 2026-04-29 17:16 | 55.88489 | 38.04062 | 503 ft | 4 kts | 91° |
| 2026-04-29 17:16 | 55.88497 | 38.04083 | 503 ft | 5 kts | 43° |
| 2026-04-29 17:17 | 55.88549 | 38.04119 | 503 ft | 5 kts | 13° |
| 2026-04-29 17:17 | 55.88591 | 38.04135 | 503 ft | 5 kts | 12° |
| 2026-04-29 17:17 | 55.88611 | 38.04142 | 503 ft | 4 kts | 11° |
| 2026-04-29 17:17 | 55.88644 | 38.04180 | 503 ft | 7 kts | 59° |
| 2026-04-29 17:18 | 55.88627 | 38.04286 | 503 ft | 11 kts | 131° |
| 2026-04-29 17:18 | 55.88569 | 38.04403 | 503 ft | 14 kts | 131° |
| 2026-04-29 17:18 | 55.88502 | 38.04542 | 503 ft | 16 kts | 131° |
| 2026-04-29 17:18 | 55.88426 | 38.04702 | 503 ft | 18 kts | 130° |
| 2026-04-29 17:19 | 55.88342 | 38.04879 | 503 ft | 20 kts | 130° |
| 2026-04-29 17:19 | 55.88249 | 38.05071 | 503 ft | 21 kts | 130° |
| 2026-04-29 17:19 | 55.88151 | 38.05280 | 503 ft | 23 kts | 130° |
| 2026-04-29 17:19 | 55.88046 | 38.05501 | 503 ft | 24 kts | 130° |
| 2026-04-29 17:20 | 55.87934 | 38.05733 | 503 ft | 25 kts | 130° |
| 2026-04-29 17:20 | 55.87818 | 38.05976 | 503 ft | 26 kts | 130° |
| 2026-04-29 17:20 | 55.87696 | 38.06227 | 503 ft | 27 kts | 130° |
| 2026-04-29 17:20 | 55.87572 | 38.06487 | 503 ft | 28 kts | 130° |
| 2026-04-29 17:21 | 55.87445 | 38.06754 | 503 ft | 29 kts | 130° |
| 2026-04-29 17:21 | 55.87314 | 38.07028 | 503 ft | 29 kts | 130° |
| 2026-04-29 17:21 | 55.87185 | 38.07298 | 503 ft | 27 kts | 130° |
| 2026-04-29 17:21 | 55.87075 | 38.07527 | 503 ft | 18 kts | 134° |
| 2026-04-29 17:22 | 55.87026 | 38.07590 | 503 ft | 3 kts | 151° |
| 2026-04-29 17:22 | 55.87018 | 38.07629 | 503 ft | 5 kts | 59° |
| 2026-04-29 17:22 | 55.87047 | 38.07597 | 503 ft | 7 kts | 297° |
| 2026-04-29 17:22 | 55.87074 | 38.07530 | 503 ft | 6 kts | 310° |
| 2026-04-29 17:23 | 55.87079 | 38.07520 | 503 ft | 0 kts | 310° |
| 2026-04-29 17:23 | 55.87079 | 38.07519 | 503 ft | 0 kts | 310° |
| 2026-04-29 17:24 | 55.87080 | 38.07518 | 503 ft | 0 kts | 310° |
| 2026-04-29 17:24 | 55.87081 | 38.07515 | 503 ft | 0 kts | 310° |
| 2026-04-29 17:25 | 55.87082 | 38.07513 | 503 ft | 0 kts | 310° |
| 2026-04-29 17:25 | 55.87082 | 38.07512 | 503 ft | 0 kts | 310° |
| 2026-04-29 17:25 | 55.87083 | 38.07512 | 503 ft | 0 kts | 310° |
| 2026-04-29 17:25 | 55.87092 | 38.07492 | 503 ft | 16 kts | 310° |
| 2026-04-29 17:26 | 55.87210 | 38.07248 | 503 ft | 61 kts | 310° |
| 2026-04-29 17:26 | 55.87626 | 38.06377 | 503 ft | 121 kts | 310° |
| 2026-04-29 17:26 | 55.88256 | 38.05063 | 619 ft | 153 kts | 310° |
| 2026-04-29 17:26 | 55.88991 | 38.03539 | 883 ft | 171 kts | 311° |
| 2026-04-29 17:27 | 55.89824 | 38.01808 | 1128 ft | 202 kts | 311° |
| 2026-04-29 17:27 | 55.90781 | 37.99763 | 1349 ft | 219 kts | 310° |
| 2026-04-29 17:27 | 55.91768 | 37.97662 | 1567 ft | 220 kts | 314° |
| 2026-04-29 17:27 | 55.92943 | 37.96101 | 2114 ft | 207 kts | 336° |
| 2026-04-29 17:28 | 55.94358 | 37.95794 | 2490 ft | 213 kts | 8° |
| 2026-04-29 17:28 | 55.95673 | 37.97126 | 2752 ft | 228 kts | 44° |
| 2026-04-29 17:28 | 55.96136 | 37.98283 | 3093 ft | 228 kts | 56° |
| 2026-04-29 17:28 | 55.96685 | 38.02356 | 4108 ft | 231 kts | 88° |
| 2026-04-29 17:29 | 55.96316 | 38.05187 | 4608 ft | 240 kts | 108° |
| 2026-04-29 17:29 | 55.95511 | 38.07863 | 5044 ft | 249 kts | 116° |
| 2026-04-29 17:29 | 55.94635 | 38.10572 | 5516 ft | 254 kts | 117° |
| 2026-04-29 17:29 | 55.93833 | 38.13155 | 6135 ft | 252 kts | 114° |
| 2026-04-29 17:30 | 55.93095 | 38.15975 | 6763 ft | 253 kts | 111° |
| 2026-04-29 17:30 | 55.92404 | 38.18868 | 7349 ft | 254 kts | 109° |
| 2026-04-29 17:30 | 55.91720 | 38.21820 | 7778 ft | 263 kts | 109° |
| 2026-04-29 17:30 | 55.91018 | 38.24896 | 8156 ft | 273 kts | 109° |
| 2026-04-29 17:31 | 55.90328 | 38.28046 | 8689 ft | 274 kts | 109° |
| 2026-04-29 17:31 | 55.89642 | 38.31207 | 9270 ft | 275 kts | 108° |
| 2026-04-29 17:31 | 55.88973 | 38.34429 | 9800 ft | 279 kts | 108° |
| 2026-04-29 17:31 | 55.88307 | 38.37692 | 10426 ft | 282 kts | 108° |
| 2026-04-29 17:32 | 55.87644 | 38.40979 | 11127 ft | 284 kts | 108° |
| 2026-04-29 17:32 | 55.86978 | 38.44310 | 11790 ft | 287 kts | 108° |
| 2026-04-29 17:32 | 55.86313 | 38.47676 | 12383 ft | 291 kts | 108° |
| 2026-04-29 17:32 | 55.85704 | 38.51132 | 12948 ft | 295 kts | 102° |
| 2026-04-29 17:33 | 55.85431 | 38.54755 | 13515 ft | 297 kts | 92° |
| 2026-04-29 17:33 | 55.85399 | 38.58407 | 14079 ft | 299 kts | 87° |
| 2026-04-29 17:33 | 55.85492 | 38.62181 | 14629 ft | 301 kts | 85° |
| 2026-04-29 17:33 | 55.85628 | 38.65919 | 15147 ft | 304 kts | 85° |
| 2026-04-29 17:34 | 55.85728 | 38.69700 | 15650 ft | 308 kts | 87° |
| 2026-04-29 17:34 | 55.85661 | 38.73513 | 16137 ft | 311 kts | 92° |
| 2026-04-29 17:34 | 55.85519 | 38.77371 | 16609 ft | 314 kts | 93° |
| 2026-04-29 17:34 | 55.85323 | 38.81260 | 17059 ft | 318 kts | 98° |
| 2026-04-29 17:35 | 55.83691 | 38.87059 | 17722 ft | 320 kts | 135° |
| 2026-04-29 17:35 | 55.81257 | 38.89973 | 18278 ft | 319 kts | 158° |
| 2026-04-29 17:35 | 55.79161 | 38.91257 | 18708 ft | 318 kts | 167° |
| 2026-04-29 17:36 | 55.76993 | 38.92054 | 19134 ft | 319 kts | 173° |
| 2026-04-29 17:36 | 55.74796 | 38.92621 | 19557 ft | 320 kts | 174° |
| 2026-04-29 17:36 | 55.72596 | 38.93144 | 19945 ft | 322 kts | 178° |
| 2026-04-29 17:36 | 55.70353 | 38.93009 | 20271 ft | 323 kts | 188° |
| 2026-04-29 17:37 | 55.68139 | 38.92315 | 20664 ft | 323 kts | 194° |
| 2026-04-29 17:37 | 55.65971 | 38.91312 | 21049 ft | 324 kts | 198° |
| 2026-04-29 17:37 | 55.63811 | 38.90174 | 21419 ft | 325 kts | 198° |
| 2026-04-29 17:37 | 55.61620 | 38.89120 | 21773 ft | 328 kts | 193° |
| 2026-04-29 17:38 | 55.59559 | 38.88473 | 22094 ft | 329 kts | 194° |
| 2026-04-29 17:38 | 55.57266 | 38.87260 | 22414 ft | 330 kts | 201° |
| 2026-04-29 17:38 | 55.56304 | 38.86593 | 22556 ft | 330 kts | 204° |
| 2026-04-29 17:38 | 55.53088 | 38.83938 | 23064 ft | 332 kts | 208° |
| 2026-04-29 17:39 | 55.50998 | 38.82140 | 23377 ft | 334 kts | 205° |
| 2026-04-29 17:39 | 55.48769 | 38.80957 | 23681 ft | 336 kts | 193° |
| 2026-04-29 17:39 | 55.46457 | 38.80361 | 24006 ft | 338 kts | 187° |
| 2026-04-29 17:39 | 55.44105 | 38.80067 | 24263 ft | 341 kts | 184° |
| 2026-04-29 17:40 | 55.41799 | 38.79926 | 24518 ft | 343 kts | 183° |
| 2026-04-29 17:40 | 55.39347 | 38.79847 | 24796 ft | 345 kts | 182° |
| 2026-04-29 17:40 | 55.36945 | 38.79800 | 25060 ft | 346 kts | 182° |
| 2026-04-29 17:40 | 55.34533 | 38.79740 | 25319 ft | 348 kts | 182° |
| 2026-04-29 17:41 | 55.32105 | 38.79656 | 25574 ft | 349 kts | 183° |
| 2026-04-29 17:41 | 55.29687 | 38.79533 | 25818 ft | 351 kts | 184° |
| 2026-04-29 17:41 | 55.27240 | 38.79357 | 26058 ft | 352 kts | 184° |
| 2026-04-29 17:41 | 55.24787 | 38.79120 | 26295 ft | 353 kts | 185° |
| 2026-04-29 17:42 | 55.22352 | 38.78535 | 26462 ft | 355 kts | 196° |
| 2026-04-29 17:42 | 55.20056 | 38.77016 | 26626 ft | 356 kts | 207° |
| 2026-04-29 17:42 | 55.17883 | 38.74906 | 26793 ft | 358 kts | 213° |
| 2026-04-29 17:42 | 55.15806 | 38.72472 | 26989 ft | 360 kts | 217° |
| 2026-04-29 17:43 | 55.13794 | 38.69890 | 27257 ft | 359 kts | 218° |
| 2026-04-29 17:43 | 55.11798 | 38.67250 | 27492 ft | 360 kts | 218° |
| 2026-04-29 17:43 | 55.09785 | 38.64661 | 27719 ft | 361 kts | 216° |
| 2026-04-29 17:43 | 55.07538 | 38.62736 | 27893 ft | 365 kts | 197° |
| 2026-04-29 17:44 | 55.05016 | 38.62131 | 28160 ft | 365 kts | 181° |
| 2026-04-29 17:44 | 55.02481 | 38.62405 | 28354 ft | 367 kts | 173° |
| 2026-04-29 17:44 | 54.99962 | 38.63116 | 28495 ft | 370 kts | 169° |
| 2026-04-29 17:44 | 54.97439 | 38.64069 | 28671 ft | 372 kts | 167° |
| 2026-04-29 17:45 | 54.94916 | 38.65138 | 28871 ft | 374 kts | 166° |
| 2026-04-29 17:45 | 54.92395 | 38.66261 | 29067 ft | 375 kts | 166° |
| 2026-04-29 17:45 | 54.89880 | 38.67406 | 29261 ft | 376 kts | 166° |
| 2026-04-29 17:45 | 54.87338 | 38.68549 | 29444 ft | 378 kts | 166° |
| 2026-04-29 17:46 | 54.84786 | 38.69677 | 29628 ft | 379 kts | 166° |
| 2026-04-29 17:46 | 54.82235 | 38.70797 | 29811 ft | 381 kts | 166° |
| 2026-04-29 17:46 | 54.79657 | 38.71910 | 29991 ft | 382 kts | 167° |
| 2026-04-29 17:46 | 54.77067 | 38.72995 | 30172 ft | 384 kts | 167° |
| 2026-04-29 17:47 | 54.74468 | 38.74070 | 30352 ft | 385 kts | 167° |
| 2026-04-29 17:47 | 54.71857 | 38.75124 | 30530 ft | 386 kts | 168° |
| 2026-04-29 17:47 | 54.69238 | 38.76140 | 30677 ft | 388 kts | 167° |
| 2026-04-29 17:47 | 54.66604 | 38.77146 | 30838 ft | 390 kts | 167° |
| 2026-04-29 17:48 | 54.63940 | 38.78150 | 31008 ft | 391 kts | 168° |
| 2026-04-29 17:48 | 54.61279 | 38.79204 | 31153 ft | 393 kts | 163° |
| 2026-04-29 17:48 | 54.58727 | 38.80878 | 31170 ft | 396 kts | 155° |
| 2026-04-29 17:49 | 54.53935 | 38.85513 | 31157 ft | 394 kts | 147° |
| 2026-04-29 17:49 | 54.49424 | 38.90696 | 31149 ft | 388 kts | 145° |
| 2026-04-29 17:50 | 54.44993 | 38.95944 | 31142 ft | 386 kts | 145° |
| 2026-04-29 17:50 | 54.40511 | 39.00941 | 31143 ft | 384 kts | 147° |
| 2026-04-29 17:50 | 54.38469 | 39.03851 | 31127 ft | 381 kts | 131° |
| 2026-04-29 17:51 | 54.36940 | 39.07526 | 31136 ft | 381 kts | 118° |
| 2026-04-29 17:51 | 54.34962 | 39.15953 | 31139 ft | 382 kts | 105° |
| 2026-04-29 17:52 | 54.33632 | 39.24710 | 31128 ft | 380 kts | 105° |
| 2026-04-29 17:52 | 54.31612 | 39.33065 | 31130 ft | 379 kts | 111° |
| 2026-04-29 17:53 | 54.29568 | 39.41405 | 31119 ft | 381 kts | 111° |
| 2026-04-29 17:53 | 54.27514 | 39.49779 | 31115 ft | 383 kts | 111° |
| 2026-04-29 17:54 | 54.25463 | 39.58170 | 31112 ft | 382 kts | 111° |
| 2026-04-29 17:54 | 54.23394 | 39.66498 | 31109 ft | 382 kts | 111° |
| 2026-04-29 17:55 | 54.21301 | 39.74832 | 31107 ft | 381 kts | 111° |
| 2026-04-29 17:55 | 54.19221 | 39.83108 | 31108 ft | 380 kts | 111° |
| 2026-04-29 17:56 | 54.17147 | 39.91362 | 31104 ft | 379 kts | 111° |
| 2026-04-29 17:56 | 54.15075 | 39.99625 | 31102 ft | 379 kts | 111° |
| 2026-04-29 17:57 | 54.13033 | 40.07893 | 31101 ft | 379 kts | 111° |
| 2026-04-29 17:57 | 54.11015 | 40.16196 | 31091 ft | 378 kts | 108° |
| 2026-04-29 17:58 | 54.09378 | 40.24688 | 31089 ft | 378 kts | 104° |
| 2026-04-29 17:58 | 54.07921 | 40.33285 | 31089 ft | 377 kts | 104° |
| 2026-04-29 17:59 | 54.06502 | 40.41818 | 31085 ft | 373 kts | 105° |
| 2026-04-29 17:59 | 54.05103 | 40.50238 | 31082 ft | 368 kts | 105° |
| 2026-04-29 18:00 | 54.03706 | 40.58543 | 31082 ft | 366 kts | 106° |
| 2026-04-29 18:00 | 54.02260 | 40.66860 | 31081 ft | 367 kts | 106° |
| 2026-04-29 18:01 | 54.00806 | 40.75151 | 31081 ft | 367 kts | 106° |
| 2026-04-29 18:01 | 53.99347 | 40.83445 | 31090 ft | 366 kts | 106° |
| 2026-04-29 18:02 | 53.97905 | 40.91738 | 31082 ft | 368 kts | 105° |
| 2026-04-29 18:02 | 53.96422 | 41.00112 | 31078 ft | 373 kts | 106° |
| 2026-04-29 18:03 | 53.94884 | 41.08558 | 31070 ft | 377 kts | 105° |
| 2026-04-29 18:03 | 53.93443 | 41.17117 | 31065 ft | 378 kts | 104° |
| 2026-04-29 18:04 | 53.92064 | 41.25694 | 31064 ft | 378 kts | 104° |
| 2026-04-29 18:04 | 53.90664 | 41.34278 | 31058 ft | 379 kts | 104° |
| 2026-04-29 18:05 | 53.89257 | 41.42918 | 31059 ft | 382 kts | 105° |
| 2026-04-29 18:05 | 53.87810 | 41.51605 | 31057 ft | 384 kts | 105° |
| 2026-04-29 18:06 | 53.86351 | 41.60303 | 31054 ft | 383 kts | 105° |
| 2026-04-29 18:06 | 53.84908 | 41.68975 | 31055 ft | 384 kts | 105° |
| 2026-04-29 18:07 | 53.83461 | 41.77668 | 31042 ft | 384 kts | 105° |
| 2026-04-29 18:07 | 53.81995 | 41.86330 | 31025 ft | 384 kts | 107° |
| 2026-04-29 18:08 | 53.80507 | 41.95042 | 31020 ft | 387 kts | 106° |
| 2026-04-29 18:08 | 53.79013 | 42.03780 | 31013 ft | 388 kts | 107° |
| 2026-04-29 18:09 | 53.77513 | 42.12525 | 31007 ft | 387 kts | 107° |
| 2026-04-29 18:09 | 53.75968 | 42.21217 | 31006 ft | 387 kts | 107° |
| 2026-04-29 18:10 | 53.74403 | 42.29927 | 31004 ft | 388 kts | 108° |
| 2026-04-29 18:10 | 53.72867 | 42.38657 | 31005 ft | 390 kts | 109° |
| 2026-04-29 18:11 | 53.71325 | 42.47443 | 31005 ft | 392 kts | 109° |
| 2026-04-29 18:11 | 53.69755 | 42.56232 | 31005 ft | 392 kts | 110° |
| 2026-04-29 18:12 | 53.68094 | 42.64974 | 30993 ft | 389 kts | 117° |
| 2026-04-29 18:12 | 53.66642 | 42.68733 | 31004 ft | 384 kts | 136° |
| 2026-04-29 18:12 | 53.64613 | 42.71619 | 31091 ft | 383 kts | 149° |
| 2026-04-29 18:13 | 53.59923 | 42.75798 | 31167 ft | 379 kts | 160° |
| 2026-04-29 18:13 | 53.55101 | 42.79075 | 31191 ft | 370 kts | 163° |
| 2026-04-29 18:14 | 53.50305 | 42.82076 | 31205 ft | 366 kts | 164° |
| 2026-04-29 18:14 | 53.45544 | 42.85030 | 31209 ft | 366 kts | 164° |
| 2026-04-29 18:15 | 53.40777 | 42.88064 | 31167 ft | 367 kts | 163° |
| 2026-04-29 18:15 | 53.36026 | 42.91113 | 31098 ft | 366 kts | 163° |
| 2026-04-29 18:16 | 53.31286 | 42.94228 | 31065 ft | 366 kts | 162° |
| 2026-04-29 18:16 | 53.26563 | 42.97402 | 31053 ft | 367 kts | 162° |
| 2026-04-29 18:17 | 53.21881 | 43.00594 | 31049 ft | 367 kts | 162° |
| 2026-04-29 18:17 | 53.17135 | 43.03927 | 31046 ft | 365 kts | 163° |
| 2026-04-29 18:18 | 53.12501 | 43.07239 | 31045 ft | 363 kts | 162° |
| 2026-04-29 18:18 | 53.07882 | 43.10635 | 31045 ft | 363 kts | 162° |
| 2026-04-29 18:19 | 53.03271 | 43.14046 | 31045 ft | 364 kts | 162° |
| 2026-04-29 18:19 | 52.99418 | 43.16900 | 31044 ft | 364 kts | 162° |
| 2026-04-29 18:20 | 52.94794 | 43.20326 | 31044 ft | 364 kts | 162° |
| 2026-04-29 18:20 | 52.90171 | 43.23750 | 31043 ft | 364 kts | 162° |
| 2026-04-29 18:21 | 52.85556 | 43.27173 | 31037 ft | 364 kts | 163° |
| 2026-04-29 18:21 | 52.80940 | 43.30588 | 31036 ft | 363 kts | 163° |
| 2026-04-29 18:22 | 52.76337 | 43.33978 | 31040 ft | 363 kts | 163° |
| 2026-04-29 18:22 | 52.71732 | 43.37367 | 31034 ft | 363 kts | 164° |
| 2026-04-29 18:23 | 52.67124 | 43.40758 | 31014 ft | 360 kts | 164° |
| 2026-04-29 18:23 | 52.62713 | 43.43986 | 31008 ft | 360 kts | 164° |
| 2026-04-29 18:24 | 52.58146 | 43.47341 | 31013 ft | 359 kts | 164° |
| 2026-04-29 18:24 | 52.53596 | 43.50687 | 31010 ft | 359 kts | 164° |
| 2026-04-29 18:25 | 52.49038 | 43.54025 | 31007 ft | 359 kts | 165° |
| 2026-04-29 18:25 | 52.44458 | 43.57281 | 31006 ft | 359 kts | 165° |
| 2026-04-29 18:26 | 52.39886 | 43.60495 | 31005 ft | 359 kts | 165° |
| 2026-04-29 18:26 | 52.35299 | 43.63713 | 31005 ft | 358 kts | 165° |
| 2026-04-29 18:27 | 52.30725 | 43.66923 | 31005 ft | 358 kts | 165° |
| 2026-04-29 18:27 | 52.27046 | 43.69504 | 31005 ft | 358 kts | 165° |
| 2026-04-29 18:28 | 52.21574 | 43.73350 | 31006 ft | 358 kts | 165° |
| 2026-04-29 18:28 | 52.17042 | 43.76578 | 31004 ft | 354 kts | 165° |
| 2026-04-29 18:29 | 52.12543 | 43.79817 | 31004 ft | 354 kts | 165° |
| 2026-04-29 18:29 | 52.08053 | 43.83066 | 31005 ft | 354 kts | 165° |
| 2026-04-29 18:30 | 52.03561 | 43.86281 | 31005 ft | 353 kts | 165° |
| 2026-04-29 18:30 | 51.99046 | 43.89431 | 31005 ft | 353 kts | 166° |
| 2026-04-29 18:31 | 51.94530 | 43.92552 | 31005 ft | 353 kts | 166° |
| 2026-04-29 18:31 | 51.90007 | 43.95669 | 31005 ft | 353 kts | 166° |
| 2026-04-29 18:32 | 51.85490 | 43.98780 | 31005 ft | 353 kts | 166° |
| 2026-04-29 18:32 | 51.78712 | 44.03448 | 31005 ft | 353 kts | 166° |
| 2026-04-29 18:33 | 51.74202 | 44.06577 | 31005 ft | 353 kts | 165° |
| 2026-04-29 18:33 | 51.69704 | 44.09753 | 31005 ft | 352 kts | 165° |
| 2026-04-29 18:34 | 51.65978 | 44.12384 | 31005 ft | 351 kts | 165° |
| 2026-04-29 18:34 | 51.60744 | 44.16001 | 31005 ft | 351 kts | 166° |
| 2026-04-29 18:35 | 51.57950 | 44.17922 | 31005 ft | 351 kts | 166° |
| 2026-04-29 18:35 | 51.51777 | 44.22168 | 31022 ft | 351 kts | 165° |
| 2026-04-29 18:36 | 51.47302 | 44.25304 | 31038 ft | 351 kts | 165° |
| 2026-04-29 18:36 | 51.42829 | 44.28395 | 31017 ft | 350 kts | 166° |
| 2026-04-29 18:37 | 51.38369 | 44.31455 | 31009 ft | 349 kts | 166° |
| 2026-04-29 18:37 | 51.34129 | 44.34361 | 31006 ft | 349 kts | 166° |
| 2026-04-29 18:38 | 51.29449 | 44.37576 | 30992 ft | 350 kts | 165° |
| 2026-04-29 18:38 | 51.24886 | 44.40746 | 31018 ft | 366 kts | 165° |
| 2026-04-29 18:39 | 51.20277 | 44.43978 | 31005 ft | 355 kts | 165° |
| 2026-04-29 18:39 | 51.15796 | 44.46963 | 30995 ft | 343 kts | 171° |
| 2026-04-29 18:40 | 51.11103 | 44.47906 | 31011 ft | 344 kts | 185° |
| 2026-04-29 18:40 | 51.06362 | 44.47729 | 31005 ft | 336 kts | 189° |
| 2026-04-29 18:41 | 50.97207 | 44.46724 | 31004 ft | 328 kts | 190° |
| 2026-04-29 18:42 | 50.92672 | 44.46180 | 31005 ft | 328 kts | 190° |
| 2026-04-29 18:42 | 50.88224 | 44.45647 | 31005 ft | 328 kts | 190° |
| 2026-04-29 18:43 | 50.83572 | 44.45092 | 31005 ft | 328 kts | 190° |
| 2026-04-29 18:43 | 50.79026 | 44.44553 | 31005 ft | 328 kts | 190° |
| 2026-04-29 18:44 | 50.74470 | 44.44017 | 31005 ft | 328 kts | 190° |
| 2026-04-29 18:44 | 50.69927 | 44.43504 | 31004 ft | 328 kts | 189° |
| 2026-04-29 18:45 | 50.65355 | 44.43046 | 31005 ft | 329 kts | 189° |
| 2026-04-29 18:45 | 50.60781 | 44.42606 | 31005 ft | 330 kts | 189° |
| 2026-04-29 18:46 | 50.56204 | 44.42174 | 31005 ft | 330 kts | 189° |
| 2026-04-29 18:46 | 50.51938 | 44.41754 | 31005 ft | 329 kts | 189° |
| 2026-04-29 18:47 | 50.47074 | 44.41224 | 31005 ft | 329 kts | 189° |
| 2026-04-29 18:47 | 50.42512 | 44.40747 | 31005 ft | 329 kts | 189° |
| 2026-04-29 18:48 | 50.37937 | 44.40272 | 31005 ft | 329 kts | 189° |
| 2026-04-29 18:48 | 50.33381 | 44.39827 | 31122 ft | 328 kts | 189° |
| 2026-04-29 18:49 | 50.28816 | 44.39403 | 31170 ft | 329 kts | 189° |
| 2026-04-29 18:49 | 50.24244 | 44.38986 | 31183 ft | 329 kts | 189° |
| 2026-04-29 18:50 | 50.19682 | 44.38529 | 31188 ft | 329 kts | 190° |
| 2026-04-29 18:50 | 50.15121 | 44.38033 | 31190 ft | 329 kts | 190° |
| 2026-04-29 18:51 | 50.10564 | 44.37533 | 31191 ft | 328 kts | 190° |
| 2026-04-29 18:51 | 50.06017 | 44.37036 | 31194 ft | 328 kts | 190° |
| 2026-04-29 18:52 | 50.01459 | 44.36544 | 31197 ft | 329 kts | 190° |
| 2026-04-29 18:52 | 49.96906 | 44.36068 | 31197 ft | 329 kts | 189° |
| 2026-04-29 18:53 | 49.92340 | 44.35656 | 31199 ft | 328 kts | 190° |
| 2026-04-29 18:53 | 49.87802 | 44.35236 | 31201 ft | 328 kts | 189° |
| 2026-04-29 18:54 | 49.83233 | 44.34794 | 31204 ft | 330 kts | 189° |
| 2026-04-29 18:54 | 49.78665 | 44.34377 | 31205 ft | 330 kts | 189° |
| 2026-04-29 18:55 | 49.74086 | 44.33966 | 31205 ft | 330 kts | 189° |
| 2026-04-29 18:55 | 49.69529 | 44.33559 | 31209 ft | 327 kts | 190° |
| 2026-04-29 18:56 | 49.65008 | 44.33158 | 31210 ft | 324 kts | 190° |
| 2026-04-29 18:56 | 49.60512 | 44.32765 | 31211 ft | 324 kts | 190° |
| 2026-04-29 18:57 | 49.56004 | 44.32377 | 31212 ft | 326 kts | 188° |
| 2026-04-29 18:57 | 49.51480 | 44.32340 | 31216 ft | 326 kts | 186° |
| 2026-04-29 18:58 | 49.46944 | 44.32465 | 31218 ft | 327 kts | 186° |
| 2026-04-29 18:58 | 49.42402 | 44.32627 | 31219 ft | 328 kts | 186° |
| 2026-04-29 18:59 | 49.37843 | 44.32799 | 31220 ft | 328 kts | 186° |
| 2026-04-29 18:59 | 49.33288 | 44.32969 | 31223 ft | 328 kts | 186° |
| 2026-04-29 19:00 | 49.28725 | 44.33129 | 31224 ft | 328 kts | 186° |
| 2026-04-29 19:00 | 49.24176 | 44.33214 | 31225 ft | 328 kts | 186° |
| 2026-04-29 19:01 | 49.19615 | 44.33288 | 31227 ft | 328 kts | 186° |
| 2026-04-29 19:01 | 49.15055 | 44.33391 | 31231 ft | 329 kts | 186° |
| 2026-04-29 19:02 | 49.12443 | 44.33458 | 31230 ft | 328 kts | 186° |
| 2026-04-29 19:02 | 49.05934 | 44.33636 | 31230 ft | 328 kts | 186° |
| 2026-04-29 19:03 | 49.01375 | 44.33764 | 31232 ft | 328 kts | 185° |
| 2026-04-29 19:03 | 48.96804 | 44.33894 | 31233 ft | 329 kts | 185° |
| 2026-04-29 19:04 | 48.92229 | 44.33996 | 31234 ft | 329 kts | 186° |
| 2026-04-29 19:04 | 48.87659 | 44.34061 | 31234 ft | 329 kts | 186° |
| 2026-04-29 19:05 | 48.83083 | 44.34136 | 31234 ft | 329 kts | 186° |
| 2026-04-29 19:05 | 48.78533 | 44.33998 | 31222 ft | 323 kts | 197° |
| 2026-04-29 19:06 | 48.76436 | 44.32849 | 31237 ft | 324 kts | 209° |
| 2026-04-29 19:06 | 48.74482 | 44.31124 | 31242 ft | 326 kts | 215° |
| 2026-04-29 19:07 | 48.69175 | 44.24933 | 31234 ft | 320 kts | 220° |
| 2026-04-29 19:07 | 48.65801 | 44.20555 | 31235 ft | 321 kts | 221° |
| 2026-04-29 19:08 | 48.62441 | 44.16153 | 31233 ft | 319 kts | 221° |
| 2026-04-29 19:08 | 48.59089 | 44.11816 | 31231 ft | 318 kts | 220° |
| 2026-04-29 19:09 | 48.55703 | 44.07531 | 31231 ft | 318 kts | 220° |
| 2026-04-29 19:09 | 48.52306 | 44.03261 | 31229 ft | 319 kts | 220° |
| 2026-04-29 19:10 | 48.48902 | 43.98996 | 31227 ft | 319 kts | 220° |
| 2026-04-29 19:10 | 48.45493 | 43.94731 | 31225 ft | 319 kts | 220° |
| 2026-04-29 19:11 | 48.42076 | 43.90463 | 31222 ft | 319 kts | 220° |
| 2026-04-29 19:11 | 48.38668 | 43.86212 | 31219 ft | 319 kts | 220° |
| 2026-04-29 19:12 | 48.35256 | 43.81962 | 31216 ft | 319 kts | 220° |
| 2026-04-29 19:12 | 48.31844 | 43.77718 | 31212 ft | 319 kts | 220° |
| 2026-04-29 19:13 | 48.28995 | 43.74179 | 31208 ft | 319 kts | 220° |
| 2026-04-29 19:13 | 48.25018 | 43.69243 | 31204 ft | 318 kts | 220° |
| 2026-04-29 19:14 | 48.22163 | 43.65768 | 31197 ft | 318 kts | 219° |
| 2026-04-29 19:14 | 48.18983 | 43.61165 | 31194 ft | 321 kts | 232° |
| 2026-04-29 19:15 | 48.16606 | 43.55487 | 31194 ft | 323 kts | 238° |
| 2026-04-29 19:15 | 48.14481 | 43.49560 | 31164 ft | 323 kts | 239° |
| 2026-04-29 19:16 | 48.12422 | 43.43608 | 31145 ft | 323 kts | 240° |
| 2026-04-29 19:16 | 48.10616 | 43.38349 | 31139 ft | 323 kts | 240° |
| 2026-04-29 19:17 | 48.08327 | 43.31677 | 31135 ft | 323 kts | 240° |
| 2026-04-29 19:17 | 48.06273 | 43.25696 | 31132 ft | 324 kts | 240° |
| 2026-04-29 19:18 | 48.04210 | 43.19713 | 31131 ft | 324 kts | 239° |
| 2026-04-29 19:18 | 48.02114 | 43.13800 | 31129 ft | 323 kts | 239° |
| 2026-04-29 19:19 | 47.99991 | 43.07871 | 31127 ft | 323 kts | 239° |
| 2026-04-29 19:19 | 47.97872 | 43.01972 | 31125 ft | 323 kts | 239° |
| 2026-04-29 19:20 | 47.95754 | 42.96084 | 31082 ft | 319 kts | 239° |
| 2026-04-29 19:20 | 47.94715 | 42.93192 | 30835 ft | 314 kts | 239° |
| 2026-04-29 19:20 | 47.93695 | 42.90344 | 30556 ft | 311 kts | 239° |
| 2026-04-29 19:20 | 47.92688 | 42.87522 | 30271 ft | 307 kts | 239° |
| 2026-04-29 19:21 | 47.91700 | 42.84738 | 29982 ft | 303 kts | 239° |
| 2026-04-29 19:21 | 47.90727 | 42.81980 | 29687 ft | 299 kts | 239° |
| 2026-04-29 19:21 | 47.90013 | 42.79951 | 29463 ft | 296 kts | 239° |
| 2026-04-29 19:21 | 47.88822 | 42.76558 | 29069 ft | 292 kts | 239° |
| 2026-04-29 19:22 | 47.87886 | 42.73900 | 28746 ft | 289 kts | 239° |
| 2026-04-29 19:22 | 47.86936 | 42.71219 | 28430 ft | 286 kts | 239° |
| 2026-04-29 19:22 | 47.86007 | 42.68617 | 28154 ft | 284 kts | 239° |
| 2026-04-29 19:22 | 47.85076 | 42.66027 | 27862 ft | 284 kts | 239° |
| 2026-04-29 19:23 | 47.84143 | 42.63447 | 27580 ft | 285 kts | 239° |
| 2026-04-29 19:23 | 47.83202 | 42.60851 | 27317 ft | 284 kts | 239° |
| 2026-04-29 19:23 | 47.82279 | 42.58268 | 27058 ft | 282 kts | 239° |
| 2026-04-29 19:23 | 47.81363 | 42.55695 | 26772 ft | 281 kts | 240° |
| 2026-04-29 19:24 | 47.80455 | 42.53130 | 26490 ft | 282 kts | 240° |
| 2026-04-29 19:24 | 47.79541 | 42.50551 | 26189 ft | 283 kts | 240° |
| 2026-04-29 19:24 | 47.78621 | 42.47963 | 25855 ft | 283 kts | 240° |
| 2026-04-29 19:24 | 47.77698 | 42.45378 | 25524 ft | 282 kts | 240° |
| 2026-04-29 19:25 | 47.76782 | 42.42826 | 25193 ft | 281 kts | 240° |
| 2026-04-29 19:25 | 47.75860 | 42.40271 | 24857 ft | 279 kts | 240° |
| 2026-04-29 19:25 | 47.74942 | 42.37737 | 24521 ft | 278 kts | 240° |
| 2026-04-29 19:25 | 47.74024 | 42.35217 | 24188 ft | 278 kts | 240° |
| 2026-04-29 19:26 | 47.73136 | 42.32803 | 23859 ft | 278 kts | 240° |
| 2026-04-29 19:26 | 47.72204 | 42.30283 | 23523 ft | 278 kts | 240° |
| 2026-04-29 19:26 | 47.71289 | 42.27772 | 23193 ft | 278 kts | 240° |
| 2026-04-29 19:26 | 47.70374 | 42.25244 | 22864 ft | 277 kts | 240° |
| 2026-04-29 19:27 | 47.69466 | 42.22727 | 22540 ft | 276 kts | 240° |
| 2026-04-29 19:27 | 47.68559 | 42.20215 | 22216 ft | 276 kts | 240° |
| 2026-04-29 19:27 | 47.67648 | 42.17726 | 21896 ft | 274 kts | 240° |
| 2026-04-29 19:27 | 47.66726 | 42.15250 | 21576 ft | 273 kts | 240° |
| 2026-04-29 19:28 | 47.65811 | 42.12798 | 21258 ft | 272 kts | 240° |
| 2026-04-29 19:28 | 47.64905 | 42.10339 | 20940 ft | 271 kts | 240° |
| 2026-04-29 19:28 | 47.63999 | 42.07889 | 20623 ft | 270 kts | 240° |
| 2026-04-29 19:28 | 47.63094 | 42.05456 | 20308 ft | 270 kts | 240° |
| 2026-04-29 19:29 | 47.62193 | 42.03037 | 19995 ft | 269 kts | 240° |
| 2026-04-29 19:29 | 47.61293 | 42.00614 | 19685 ft | 268 kts | 240° |
| 2026-04-29 19:29 | 47.60397 | 41.98206 | 19381 ft | 266 kts | 240° |
| 2026-04-29 19:29 | 47.59506 | 41.95815 | 19075 ft | 265 kts | 240° |
| 2026-04-29 19:30 | 47.58620 | 41.93439 | 18768 ft | 264 kts | 240° |
| 2026-04-29 19:30 | 47.57735 | 41.91068 | 18462 ft | 263 kts | 240° |
| 2026-04-29 19:30 | 47.57119 | 41.89420 | 18248 ft | 262 kts | 240° |
| 2026-04-29 19:30 | 47.55979 | 41.86343 | 17851 ft | 261 kts | 240° |
| 2026-04-29 19:31 | 47.55116 | 41.84000 | 17551 ft | 261 kts | 240° |
| 2026-04-29 19:31 | 47.54248 | 41.81648 | 17249 ft | 260 kts | 240° |
| 2026-04-29 19:31 | 47.53382 | 41.79305 | 16949 ft | 259 kts | 240° |
| 2026-04-29 19:31 | 47.52511 | 41.76978 | 16650 ft | 258 kts | 240° |
| 2026-04-29 19:32 | 47.51640 | 41.74671 | 16354 ft | 258 kts | 240° |
| 2026-04-29 19:32 | 47.50770 | 41.72359 | 16054 ft | 257 kts | 240° |
| 2026-04-29 19:32 | 47.49899 | 41.70054 | 15757 ft | 257 kts | 240° |
| 2026-04-29 19:32 | 47.49028 | 41.67751 | 15462 ft | 256 kts | 240° |
| 2026-04-29 19:33 | 47.48443 | 41.66230 | 15267 ft | 256 kts | 240° |
| 2026-04-29 19:33 | 47.47277 | 41.63184 | 14878 ft | 255 kts | 240° |
| 2026-04-29 19:33 | 47.46495 | 41.60837 | 14555 ft | 256 kts | 249° |
| 2026-04-29 19:33 | 47.46023 | 41.58309 | 14242 ft | 255 kts | 257° |
| 2026-04-29 19:34 | 47.45038 | 41.48025 | 13078 ft | 253 kts | 262° |
| 2026-04-29 19:35 | 47.44825 | 41.45443 | 12793 ft | 253 kts | 262° |
| 2026-04-29 19:35 | 47.44614 | 41.42872 | 12510 ft | 252 kts | 262° |
| 2026-04-29 19:35 | 47.44472 | 41.41137 | 12319 ft | 252 kts | 262° |
| 2026-04-29 19:35 | 47.44184 | 41.37757 | 11947 ft | 251 kts | 261° |
| 2026-04-29 19:36 | 47.43949 | 41.35210 | 11667 ft | 250 kts | 261° |
| 2026-04-29 19:36 | 47.43707 | 41.32662 | 11387 ft | 250 kts | 261° |
| 2026-04-29 19:36 | 47.43464 | 41.30137 | 11110 ft | 249 kts | 261° |
| 2026-04-29 19:37 | 47.43314 | 41.23254 | 10307 ft | 250 kts | 277° |
| 2026-04-29 19:37 | 47.43611 | 41.20857 | 10056 ft | 248 kts | 279° |
| 2026-04-29 19:38 | 47.43965 | 41.18381 | 9791 ft | 247 kts | 280° |
| 2026-04-29 19:38 | 47.44337 | 41.15923 | 9531 ft | 245 kts | 279° |
| 2026-04-29 19:38 | 47.44713 | 41.13485 | 9276 ft | 242 kts | 279° |
| 2026-04-29 19:38 | 47.45078 | 41.11067 | 9006 ft | 241 kts | 280° |
| 2026-04-29 19:39 | 47.45441 | 41.08647 | 8723 ft | 242 kts | 281° |
| 2026-04-29 19:39 | 47.45809 | 41.06220 | 8451 ft | 243 kts | 281° |
| 2026-04-29 19:39 | 47.46176 | 41.03794 | 8184 ft | 243 kts | 281° |
| 2026-04-29 19:39 | 47.46542 | 41.01366 | 7920 ft | 242 kts | 281° |
| 2026-04-29 19:40 | 47.46907 | 40.98941 | 7654 ft | 241 kts | 281° |
| 2026-04-29 19:40 | 47.47269 | 40.96525 | 7390 ft | 241 kts | 281° |
| 2026-04-29 19:40 | 47.47628 | 40.94124 | 7127 ft | 240 kts | 281° |
| 2026-04-29 19:40 | 47.47990 | 40.91684 | 6861 ft | 240 kts | 281° |
| 2026-04-29 19:41 | 47.48345 | 40.89285 | 6601 ft | 239 kts | 281° |
| 2026-04-29 19:41 | 47.48698 | 40.86886 | 6340 ft | 239 kts | 281° |
| 2026-04-29 19:41 | 47.49055 | 40.84454 | 6077 ft | 238 kts | 281° |
| 2026-04-29 19:41 | 47.49349 | 40.82431 | 5859 ft | 238 kts | 281° |
| 2026-04-29 19:42 | 47.49749 | 40.79681 | 5562 ft | 237 kts | 281° |
| 2026-04-29 19:42 | 47.49979 | 40.78094 | 5391 ft | 237 kts | 281° |
| 2026-04-29 19:42 | 47.50435 | 40.74931 | 5051 ft | 236 kts | 281° |
| 2026-04-29 19:42 | 47.50778 | 40.72574 | 4798 ft | 235 kts | 281° |
| 2026-04-29 19:43 | 47.51123 | 40.70212 | 4541 ft | 235 kts | 281° |
| 2026-04-29 19:43 | 47.51467 | 40.67848 | 4258 ft | 237 kts | 281° |
| 2026-04-29 19:43 | 47.51813 | 40.65448 | 3915 ft | 240 kts | 281° |
| 2026-04-29 19:43 | 47.52159 | 40.63033 | 3591 ft | 242 kts | 281° |
| 2026-04-29 19:44 | 47.52512 | 40.60583 | 3276 ft | 244 kts | 281° |
| 2026-04-29 19:44 | 47.52870 | 40.58126 | 2972 ft | 245 kts | 281° |
| 2026-04-29 19:44 | 47.53233 | 40.55663 | 2674 ft | 245 kts | 282° |
| 2026-04-29 19:44 | 47.53595 | 40.53205 | 2383 ft | 245 kts | 282° |
| 2026-04-29 19:45 | 47.53956 | 40.50739 | 2096 ft | 245 kts | 282° |
| 2026-04-29 19:45 | 47.54313 | 40.48284 | 1855 ft | 243 kts | 282° |
| 2026-04-29 19:45 | 47.54666 | 40.45859 | 1667 ft | 239 kts | 282° |
| 2026-04-29 19:45 | 47.55011 | 40.43482 | 1520 ft | 234 kts | 282° |
| 2026-04-29 19:46 | 47.55346 | 40.41169 | 1472 ft | 224 kts | 282° |
| 2026-04-29 19:46 | 47.55664 | 40.38967 | 1477 ft | 214 kts | 282° |
| 2026-04-29 19:46 | 47.55959 | 40.36873 | 1477 ft | 204 kts | 281° |
| 2026-04-29 19:46 | 47.56232 | 40.34838 | 1464 ft | 202 kts | 280° |
| 2026-04-29 19:47 | 47.56475 | 40.32853 | 1587 ft | 186 kts | 279° |
| 2026-04-29 19:47 | 47.56686 | 40.31014 | 1540 ft | 182 kts | 279° |
| 2026-04-29 19:47 | 47.56868 | 40.29173 | 1543 ft | 178 kts | 277° |
| 2026-04-29 19:47 | 47.57037 | 40.27377 | 1548 ft | 175 kts | 278° |
| 2026-04-29 19:48 | 47.57291 | 40.25618 | 1553 ft | 174 kts | 284° |
| 2026-04-29 19:48 | 47.57514 | 40.24474 | 1490 ft | 173 kts | 285° |
| 2026-04-29 19:48 | 47.57824 | 40.22208 | 1461 ft | 165 kts | 274° |
| 2026-04-29 19:48 | 47.57755 | 40.20529 | 1503 ft | 163 kts | 263° |
| 2026-04-29 19:49 | 47.57583 | 40.18870 | 1539 ft | 163 kts | 262° |
| 2026-04-29 19:49 | 47.57415 | 40.17205 | 1550 ft | 164 kts | 261° |
| 2026-04-29 19:49 | 47.57308 | 40.16409 | 1548 ft | 165 kts | 259° |
| 2026-04-29 19:49 | 47.56954 | 40.13878 | 1533 ft | 166 kts | 260° |
| 2026-04-29 19:50 | 47.56748 | 40.12196 | 1533 ft | 166 kts | 261° |
| 2026-04-29 19:50 | 47.56553 | 40.10495 | 1491 ft | 168 kts | 261° |
| 2026-04-29 19:50 | 47.56253 | 40.08839 | 1491 ft | 168 kts | 251° |
| 2026-04-29 19:50 | 47.55880 | 40.07221 | 1530 ft | 163 kts | 252° |
| 2026-04-29 19:51 | 47.55494 | 40.05676 | 1548 ft | 158 kts | 249° |
| 2026-04-29 19:51 | 47.55073 | 40.04174 | 1500 ft | 158 kts | 245° |
| 2026-04-29 19:51 | 47.54471 | 40.02849 | 1510 ft | 154 kts | 233° |
| 2026-04-29 19:51 | 47.53906 | 40.01578 | 1489 ft | 139 kts | 236° |
| 2026-04-29 19:52 | 47.53302 | 40.00444 | 1341 ft | 143 kts | 233° |
| 2026-04-29 19:52 | 47.52690 | 39.99270 | 1124 ft | 142 kts | 235° |
| 2026-04-29 19:52 | 47.52135 | 39.98107 | 902 ft | 135 kts | 236° |
| 2026-04-29 19:52 | 47.51582 | 39.96987 | 762 ft | 137 kts | 236° |
| 2026-04-29 19:53 | 47.51030 | 39.95838 | 593 ft | 136 kts | 236° |
| 2026-04-29 19:53 | 47.50483 | 39.94723 | 392 ft | 131 kts | 236° |
| 2026-04-29 19:53 | 47.49981 | 39.93686 | 291 ft | 110 kts | 237° |
| 2026-04-29 19:53 | 47.49624 | 39.92934 | 286 ft | 70 kts | 234° |
| 2026-04-29 19:54 | 47.49215 | 39.92095 | 286 ft | 35 kts | 234° |
| 2026-04-29 19:54 | 47.49087 | 39.91829 | 286 ft | 27 kts | 233° |
| 2026-04-29 19:54 | 47.48990 | 39.91633 | 286 ft | 24 kts | 234° |
| 2026-04-29 19:55 | 47.48893 | 39.91437 | 286 ft | 24 kts | 233° |
| 2026-04-29 19:55 | 47.48795 | 39.91236 | 286 ft | 22 kts | 235° |
| 2026-04-29 19:55 | 47.48716 | 39.91116 | 286 ft | 14 kts | 199° |
| 2026-04-29 19:55 | 47.48640 | 39.91157 | 286 ft | 10 kts | 146° |
| 2026-04-29 19:56 | 47.48601 | 39.91218 | 286 ft | 10 kts | 109° |
| 2026-04-29 19:56 | 47.48623 | 39.91311 | 286 ft | 12 kts | 56° |
| 2026-04-29 19:56 | 47.48665 | 39.91400 | 286 ft | 11 kts | 54° |
| 2026-04-29 19:56 | 47.48717 | 39.91507 | 286 ft | 15 kts | 54° |
| 2026-04-29 19:57 | 47.48787 | 39.91650 | 286 ft | 19 kts | 53° |
| 2026-04-29 19:57 | 47.48797 | 39.91669 | 286 ft | 20 kts | 53° |
| 2026-04-29 19:57 | 47.48930 | 39.91949 | 286 ft | 14 kts | 69° |
| 2026-04-29 19:57 | 47.48888 | 39.92065 | 286 ft | 11 kts | 133° |
| 2026-04-29 19:58 | 47.48814 | 39.92153 | 286 ft | 15 kts | 140° |
| 2026-04-29 19:58 | 47.48827 | 39.92287 | 286 ft | 16 kts | 56° |
| 2026-04-29 19:58 | 47.48899 | 39.92439 | 286 ft | 20 kts | 54° |
| 2026-04-29 19:58 | 47.48980 | 39.92604 | 286 ft | 18 kts | 53° |
| 2026-04-29 19:59 | 47.49045 | 39.92733 | 286 ft | 16 kts | 54° |
| 2026-04-29 19:59 | 47.49119 | 39.92885 | 286 ft | 20 kts | 54° |
| 2026-04-29 19:59 | 47.49209 | 39.93071 | 286 ft | 24 kts | 54° |
| 2026-04-29 19:59 | 47.49300 | 39.93258 | 286 ft | 20 kts | 54° |
| 2026-04-29 20:00 | 47.49370 | 39.93405 | 286 ft | 18 kts | 55° |
| 2026-04-29 20:00 | 47.49453 | 39.93575 | 286 ft | 22 kts | 53° |
| 2026-04-29 20:00 | 47.49552 | 39.93775 | 286 ft | 26 kts | 53° |
| 2026-04-29 20:00 | 47.49632 | 39.93935 | 286 ft | 11 kts | 55° |
| 2026-04-29 20:01 | 47.49684 | 39.94045 | 286 ft | 15 kts | 55° |
| 2026-04-29 20:01 | 47.49751 | 39.94187 | 286 ft | 14 kts | 54° |
| 2026-04-29 20:01 | 47.49794 | 39.94282 | 286 ft | 11 kts | 62° |
| 2026-04-29 20:01 | 47.49764 | 39.94334 | 286 ft | 6 kts | 152° |
| 2026-04-29 20:02 | 47.49759 | 39.94340 | 286 ft | 0 kts | 148° |
| 2026-04-29 20:02 | 47.49758 | 39.94340 | 286 ft | 0 kts | 148° |